createdAt,value
2017-11-28T00:01:47.436Z,3.97
2017-11-28T00:04:15.531Z,4.57
2017-11-28T00:06:44.377Z,4.45
2017-11-28T00:09:12.464Z,3.62
2017-11-28T00:11:40.549Z,3.47
2017-11-28T00:14:08.633Z,3.45
2017-11-28T00:16:37.478Z,4.28
2017-11-28T00:19:05.568Z,4.00
2017-11-28T00:21:33.645Z,4.53
2017-11-28T00:24:01.733Z,3.83
2017-11-28T00:26:30.574Z,4.03
2017-11-28T00:28:58.672Z,3.50
2017-11-28T00:31:26.747Z,3.87
2017-11-28T00:33:54.825Z,3.58
2017-11-28T00:36:23.676Z,3.28
2017-11-28T00:38:51.756Z,3.53
2017-11-28T00:41:19.852Z,3.55
2017-11-28T00:43:48.697Z,3.50
2017-11-28T00:46:16.794Z,4.20
2017-11-28T00:48:44.869Z,3.85
2017-11-28T00:51:12.961Z,3.45
2017-11-28T00:53:41.804Z,2.83
2017-11-28T00:56:09.892Z,3.30
2017-11-28T00:58:37.965Z,2.90
2017-11-28T01:01:06.057Z,3.17
2017-11-28T01:03:34.905Z,3.60
2017-11-28T01:06:03.007Z,3.20
2017-11-28T01:08:31.861Z,3.00
2017-11-28T01:10:59.948Z,3.58
2017-11-28T01:13:28.033Z,3.53
2017-11-28T01:15:56.104Z,2.83
2017-11-28T01:18:24.194Z,3.10
2017-11-28T01:20:53.028Z,3.65
2017-11-28T01:23:21.118Z,4.12
2017-11-28T01:25:49.196Z,3.58
2017-11-28T01:28:17.315Z,3.62
2017-11-28T01:30:45.480Z,3.80
2017-11-28T01:33:13.571Z,3.95
2017-11-28T01:35:41.651Z,3.50
2017-11-28T01:38:09.732Z,5.10
2017-11-28T01:40:37.802Z,3.73
2017-11-28T01:43:05.904Z,4.28
2017-11-28T01:45:34.752Z,6.15
2017-11-28T01:48:03.645Z,5.20
2017-11-28T01:50:31.728Z,4.30
2017-11-28T01:52:59.804Z,4.20
2017-11-28T01:55:28.661Z,4.20
2017-11-28T01:57:56.741Z,3.72
2017-11-28T02:00:24.833Z,3.95
2017-11-28T02:02:52.922Z,4.12
2017-11-28T02:05:21.769Z,3.90
2017-11-28T02:07:49.849Z,3.60
2017-11-28T02:10:17.941Z,3.42
2017-11-28T02:12:46.022Z,4.32
2017-11-28T02:15:14.881Z,4.15
2017-11-28T02:17:42.961Z,3.47
2017-11-28T02:20:11.047Z,3.73
2017-11-28T02:22:39.896Z,6.20
2017-11-28T02:25:07.984Z,3.37
2017-11-28T02:27:36.061Z,3.40
2017-11-28T02:30:04.144Z,3.55
2017-11-28T02:32:32.227Z,3.40
2017-11-28T02:35:01.083Z,3.85
2017-11-28T02:37:29.157Z,3.65
2017-11-28T02:39:57.252Z,3.75
2017-11-28T02:42:25.332Z,3.45
2017-11-28T02:44:53.458Z,3.67
2017-11-28T02:47:21.537Z,3.60
2017-11-28T02:49:50.744Z,4.00
2017-11-28T02:52:18.819Z,3.85
2017-11-28T02:54:53.408Z,4.18
2017-11-28T02:57:21.480Z,3.67
2017-11-28T02:59:50.474Z,3.30
2017-11-28T03:02:18.552Z,3.78
2017-11-28T03:04:46.636Z,3.42
2017-11-28T03:07:14.723Z,4.80
2017-11-28T03:09:44.342Z,3.50
2017-11-28T03:12:13.868Z,3.58
2017-11-28T03:14:45.412Z,3.10
2017-11-28T03:17:14.229Z,3.55
2017-11-28T03:19:53.768Z,3.25
2017-11-28T03:22:37.573Z,3.40
2017-11-28T03:28:14.200Z,3.40
2017-11-28T03:30:46.746Z,3.20
2017-11-28T03:33:14.838Z,3.50
2017-11-28T03:35:42.935Z,3.42
2017-11-28T03:38:11.006Z,4.00
2017-11-28T03:40:39.128Z,3.40
2017-11-28T03:43:07.213Z,5.90
2017-11-28T03:46:00.078Z,3.87
2017-11-28T03:48:28.179Z,3.60
2017-11-28T03:50:56.254Z,3.62
2017-11-28T03:53:24.333Z,4.28
2017-11-28T03:55:53.178Z,3.50
2017-11-28T03:58:21.269Z,3.20
2017-11-28T04:00:50.984Z,5.70
2017-11-28T04:03:19.056Z,3.80
2017-11-28T04:05:47.912Z,3.95
2017-11-28T04:08:16.022Z,6.67
2017-11-28T04:10:44.172Z,3.73
2017-11-28T04:13:12.257Z,3.17
2017-11-28T04:15:40.341Z,4.12
2017-11-28T04:18:09.189Z,3.40
2017-11-28T04:20:37.265Z,3.80
2017-11-28T04:23:05.344Z,4.03
2017-11-28T04:25:33.434Z,3.50
2017-11-28T04:28:01.524Z,4.10
2017-11-28T04:30:30.365Z,6.10
2017-11-28T04:32:58.452Z,4.87
2017-11-28T04:35:26.537Z,5.82
2017-11-28T04:37:55.381Z,6.00
2017-11-28T04:40:23.556Z,4.60
2017-11-28T04:42:51.637Z,5.75
2017-11-28T04:45:19.720Z,6.90
2017-11-28T04:47:47.818Z,5.40
2017-11-28T04:50:15.920Z,5.97
2017-11-28T04:52:44.018Z,6.68
2017-11-28T04:55:12.096Z,6.53
2017-11-28T04:57:40.185Z,8.15
2017-11-28T05:00:09.025Z,6.22
2017-11-28T05:02:37.115Z,6.60
2017-11-28T05:05:05.202Z,6.25
2017-11-28T05:07:33.308Z,5.68
2017-11-28T05:10:01.385Z,5.72
2017-11-28T05:12:29.454Z,5.20
2017-11-28T05:14:57.532Z,9.35
2017-11-28T05:17:25.674Z,10.43
2017-11-28T05:19:53.760Z,4.72
2017-11-28T05:22:22.000Z,8.60
2017-11-28T05:24:50.093Z,7.03
2017-11-28T05:27:18.344Z,6.78
2017-11-28T05:29:47.216Z,5.03
2017-11-28T05:32:15.513Z,5.60
2017-11-28T05:34:43.597Z,6.15
2017-11-28T05:37:12.449Z,5.12
2017-11-28T05:39:40.524Z,4.25
2017-11-28T05:42:08.617Z,4.32
2017-11-28T05:44:36.701Z,4.87
2017-11-28T05:47:05.554Z,4.97
2017-11-28T05:49:33.633Z,4.68
2017-11-28T05:52:01.720Z,3.75
2017-11-28T05:54:30.571Z,4.40
2017-11-28T05:56:58.662Z,4.30
2017-11-28T05:59:26.750Z,4.90
2017-11-28T06:01:55.601Z,4.35
2017-11-28T06:04:23.682Z,4.30
2017-11-28T06:06:51.782Z,4.53
2017-11-28T06:09:20.629Z,6.10
2017-11-28T06:11:48.712Z,4.65
2017-11-28T06:14:16.794Z,4.90
2017-11-28T06:16:44.881Z,7.05
2017-11-28T06:19:12.965Z,5.28
2017-11-28T06:21:41.059Z,4.85
2017-11-28T06:24:09.131Z,4.50
2017-11-28T06:26:37.230Z,5.68
2017-11-28T06:29:05.309Z,4.78
2017-11-28T06:31:33.432Z,7.62
2017-11-28T06:34:01.528Z,6.30
2017-11-28T06:36:29.604Z,9.88
2017-11-28T06:38:57.697Z,6.72
2017-11-28T06:41:25.825Z,5.80
2017-11-28T06:43:54.604Z,5.07
2017-11-28T06:46:22.689Z,6.25
2017-11-28T06:48:50.769Z,7.95
2017-11-28T06:51:18.869Z,6.13
2017-11-28T06:53:46.950Z,5.35
2017-11-28T06:56:15.040Z,7.73
2017-11-28T06:58:43.128Z,6.32
2017-11-28T07:01:11.227Z,5.40
2017-11-28T07:03:39.420Z,6.00
2017-11-28T07:06:07.518Z,6.07
2017-11-28T07:08:35.584Z,7.60
2017-11-28T07:11:03.714Z,6.72
2017-11-28T07:13:31.808Z,5.60
2017-11-28T07:15:59.884Z,7.55
2017-11-28T07:18:28.752Z,5.55
2017-11-28T07:20:56.820Z,7.18
2017-11-28T07:23:24.905Z,5.18
2017-11-28T07:25:52.977Z,6.20
2017-11-28T07:28:21.079Z,8.10
2017-11-28T07:30:49.903Z,6.15
2017-11-28T07:33:17.993Z,6.78
2017-11-28T07:35:46.079Z,5.10
2017-11-28T07:38:14.185Z,7.85
2017-11-28T07:40:42.264Z,6.25
2017-11-28T07:43:10.361Z,5.40
2017-11-28T07:45:38.429Z,4.90
2017-11-28T07:48:06.519Z,6.90
2017-11-28T07:50:34.596Z,5.57
2017-11-28T07:53:02.686Z,6.62
2017-11-28T07:55:31.539Z,5.13
2017-11-28T07:57:59.632Z,5.75
2017-11-28T08:00:27.717Z,4.73
2017-11-28T08:02:56.560Z,4.95
2017-11-28T08:05:24.646Z,6.10
2017-11-28T08:07:52.733Z,7.05
2017-11-28T08:10:21.584Z,5.53
2017-11-28T08:12:49.701Z,4.90
2017-11-28T08:15:18.540Z,5.37
2017-11-28T08:17:46.628Z,7.40
2017-11-28T08:20:14.706Z,5.00
2017-11-28T08:22:42.797Z,5.47
2017-11-28T08:25:11.642Z,5.33
2017-11-28T08:27:39.733Z,6.82
2017-11-28T08:30:07.801Z,5.47
2017-11-28T08:32:35.890Z,5.43
2017-11-28T08:35:03.974Z,5.70
2017-11-28T08:37:32.812Z,5.53
2017-11-28T08:40:00.881Z,6.27
2017-11-28T08:42:28.965Z,5.83
2017-11-28T08:44:57.036Z,5.63
2017-11-28T08:47:25.124Z,5.57
2017-11-28T08:49:53.202Z,5.77
2017-11-28T08:52:21.280Z,10.10
2017-11-28T08:54:50.124Z,8.80
2017-11-28T08:57:18.253Z,5.37
2017-11-28T08:59:46.325Z,6.63
2017-11-28T09:02:14.400Z,6.80
2017-11-28T09:04:42.499Z,7.03
2017-11-28T09:07:10.581Z,5.93
2017-11-28T09:09:38.665Z,6.00
2017-11-28T09:12:06.736Z,5.77
2017-11-28T09:14:34.833Z,5.30
2017-11-28T09:17:02.892Z,6.47
2017-11-28T09:19:30.977Z,6.37
2017-11-28T09:21:59.827Z,4.80
2017-11-28T09:24:27.912Z,6.10
2017-11-28T09:26:56.000Z,6.60
2017-11-28T09:29:24.869Z,5.70
2017-11-28T09:31:52.940Z,6.33
2017-11-28T09:34:21.016Z,5.70
2017-11-28T09:36:49.098Z,6.00
2017-11-28T09:39:17.941Z,6.70
2017-11-28T09:41:46.021Z,5.83
2017-11-28T09:44:14.093Z,5.37
2017-11-28T09:46:42.181Z,5.17
2017-11-28T09:49:10.255Z,9.60
2017-11-28T09:51:38.332Z,5.97
2017-11-28T09:54:07.185Z,4.67
2017-11-28T09:56:35.274Z,5.37
2017-11-28T09:59:03.351Z,5.30
2017-11-28T10:01:31.425Z,6.17
2017-11-28T10:03:59.511Z,5.60
2017-11-28T10:06:28.351Z,7.00
2017-11-28T10:08:56.425Z,4.90
2017-11-28T10:11:24.509Z,5.30
2017-11-28T10:13:52.597Z,5.50
2017-11-28T10:16:21.444Z,6.40
2017-11-28T10:18:49.521Z,4.97
2017-11-28T10:21:17.589Z,5.13
2017-11-28T10:23:45.673Z,5.30
2017-11-28T10:26:13.740Z,7.07
2017-11-28T10:28:41.850Z,6.10
2017-11-28T10:31:10.693Z,5.03
2017-11-28T10:33:38.781Z,5.00
2017-11-28T10:36:06.869Z,4.83
2017-11-28T10:38:34.944Z,4.37
2017-11-28T10:41:03.788Z,4.33
2017-11-28T10:43:31.993Z,4.03
2017-11-28T10:46:00.077Z,4.47
2017-11-28T10:48:28.169Z,5.30
2017-11-28T10:50:56.407Z,3.93
2017-11-28T10:53:24.572Z,2.87
2017-11-28T10:55:52.753Z,2.60
2017-11-28T10:58:20.856Z,2.80
2017-11-28T11:00:48.937Z,2.90
2017-11-28T11:03:17.018Z,3.23
2017-11-28T11:05:45.224Z,2.20
2017-11-28T11:08:13.309Z,2.60
2017-11-28T11:10:41.574Z,2.10
2017-11-28T11:13:09.733Z,2.07
2017-11-28T11:15:37.815Z,1.93
2017-11-28T11:18:05.901Z,2.23
2017-11-28T11:20:34.749Z,2.00
2017-11-28T11:23:02.958Z,2.40
2017-11-28T11:25:31.056Z,1.97
2017-11-28T11:27:59.121Z,1.83
2017-11-28T11:30:27.952Z,1.70
2017-11-28T11:32:56.032Z,1.90
2017-11-28T11:35:24.122Z,2.40
2017-11-28T11:37:52.193Z,1.70
2017-11-28T11:40:20.268Z,1.63
2017-11-28T11:42:48.348Z,1.70
2017-11-28T11:45:17.195Z,1.77
2017-11-28T11:47:45.271Z,2.03
2017-11-28T11:50:13.349Z,1.90
2017-11-28T11:52:41.439Z,1.53
2017-11-28T11:55:09.508Z,1.40
2017-11-28T11:57:37.588Z,1.73
2017-11-28T12:00:06.425Z,1.40
2017-11-28T12:02:34.505Z,1.40
2017-11-28T12:05:02.577Z,3.30
2017-11-28T12:07:30.661Z,1.60
2017-11-28T12:09:58.733Z,1.67
2017-11-28T12:12:26.809Z,1.50
2017-11-28T12:14:54.894Z,1.87
2017-11-28T12:17:23.756Z,1.50
2017-11-28T12:19:51.837Z,1.50
2017-11-28T12:22:19.900Z,3.20
2017-11-28T12:24:47.988Z,1.50
2017-11-28T12:27:17.044Z,1.83
2017-11-28T12:29:45.128Z,1.93
2017-11-28T12:32:13.205Z,1.70
2017-11-28T12:34:41.295Z,1.77
2017-11-28T12:37:09.364Z,1.60
2017-11-28T12:39:37.434Z,1.80
2017-11-28T12:42:06.280Z,2.37
2017-11-28T12:44:34.366Z,2.33
2017-11-28T12:47:02.440Z,1.60
2017-11-28T12:49:30.521Z,1.80
2017-11-28T12:51:58.598Z,1.50
2017-11-28T12:54:26.672Z,1.93
2017-11-28T12:56:55.517Z,2.10
2017-11-28T12:59:23.601Z,1.80
2017-11-28T13:01:51.668Z,2.40
2017-11-28T13:04:19.749Z,2.00
2017-11-28T13:06:47.819Z,1.77
2017-11-28T13:09:15.895Z,2.10
2017-11-28T13:11:43.966Z,2.10
2017-11-28T13:14:12.046Z,2.03
2017-11-28T13:16:40.121Z,1.80
2017-11-28T13:19:08.208Z,2.30
2017-11-28T13:21:37.065Z,1.93
2017-11-28T13:24:05.156Z,1.93
2017-11-28T13:26:33.229Z,2.23
2017-11-28T13:29:02.070Z,2.00
2017-11-28T13:31:30.152Z,2.67
2017-11-28T13:33:58.236Z,2.00
2017-11-28T13:36:26.315Z,2.10
2017-11-28T13:38:54.392Z,2.60
2017-11-28T13:41:23.252Z,2.27
2017-11-28T13:43:51.353Z,2.03
2017-11-28T13:46:20.201Z,2.50
2017-11-28T13:48:48.277Z,2.40
2017-11-28T13:51:16.361Z,2.67
2017-11-28T13:53:44.444Z,2.53
2017-11-28T13:56:13.301Z,2.60
2017-11-28T13:58:41.376Z,3.20
2017-11-28T14:01:09.457Z,2.80
2017-11-28T14:03:37.530Z,3.77
2017-11-28T14:06:05.609Z,3.20
2017-11-28T14:08:33.682Z,4.13
2017-11-28T14:11:01.764Z,4.53
2017-11-28T14:13:30.603Z,4.83
2017-11-28T14:15:58.683Z,5.23
2017-11-28T14:18:26.763Z,5.03
2017-11-28T14:21:00.540Z,6.00
2017-11-28T14:23:34.280Z,6.70
2017-11-28T14:39:35.268Z,7.30
2017-11-28T14:55:29.961Z,8.97
2017-11-28T14:58:13.717Z,10.13
2017-11-28T15:00:59.569Z,8.77
2017-11-28T15:03:33.213Z,16.07
2017-11-28T15:19:38.785Z,8.50
2017-11-28T15:22:06.866Z,10.07
2017-11-28T15:24:36.876Z,9.10
2017-11-28T15:27:04.949Z,8.23
2017-11-28T15:29:33.033Z,8.90
2017-11-28T15:32:01.115Z,9.10
2017-11-28T15:34:29.195Z,9.27
2017-11-28T15:36:57.273Z,10.33
2017-11-28T15:39:25.356Z,9.37
2017-11-28T15:41:54.197Z,8.60
2017-11-28T15:44:22.268Z,8.23
2017-11-28T15:46:50.366Z,10.03
2017-11-28T15:49:18.491Z,10.23
2017-11-28T15:51:46.582Z,8.90
2017-11-28T15:54:14.774Z,9.80
2017-11-28T15:56:42.951Z,8.23
2017-11-28T15:59:11.024Z,9.67
2017-11-28T16:01:39.125Z,7.90
2017-11-28T16:04:07.201Z,8.23
2017-11-28T16:06:35.281Z,7.20
2017-11-28T16:09:03.357Z,9.23
2017-11-28T16:11:31.736Z,7.37
2017-11-28T16:13:59.877Z,7.33
2017-11-28T16:16:27.956Z,5.80
2017-11-28T16:18:56.028Z,5.50
2017-11-28T16:21:24.122Z,5.60
2017-11-28T16:23:52.193Z,9.20
2017-11-28T16:26:20.405Z,10.33
2017-11-28T16:28:48.481Z,9.43
2017-11-28T16:31:17.340Z,11.97
2017-11-28T16:33:45.425Z,19.77
2017-11-28T16:36:13.516Z,19.33
2017-11-28T16:38:42.358Z,10.53
2017-11-28T16:41:10.441Z,12.50
2017-11-28T16:43:38.538Z,10.20
2017-11-28T16:46:06.625Z,14.60
2017-11-28T16:48:34.713Z,8.10
2017-11-28T16:51:02.805Z,7.60
2017-11-28T16:53:30.894Z,12.87
2017-11-28T16:55:58.988Z,10.00
2017-11-28T16:58:27.064Z,12.40
2017-11-28T17:00:55.930Z,13.10
2017-11-28T17:03:24.012Z,11.33
2017-11-28T17:05:52.099Z,15.47
2017-11-28T17:08:20.941Z,12.47
2017-11-28T17:10:49.036Z,14.00
2017-11-28T17:13:17.119Z,8.90
2017-11-28T17:15:45.212Z,10.90
2017-11-28T17:18:14.035Z,17.10
2017-11-28T17:20:42.124Z,12.13
2017-11-28T17:23:10.221Z,20.60
2017-11-28T17:25:39.079Z,13.40
2017-11-28T17:28:07.166Z,13.00
2017-11-28T17:30:35.336Z,10.73
2017-11-28T17:33:03.428Z,12.37
2017-11-28T17:35:31.517Z,12.33
2017-11-28T17:37:59.642Z,12.87
2017-11-28T17:40:27.741Z,11.90
2017-11-28T17:42:56.606Z,12.03
2017-11-28T17:45:24.696Z,12.67
2017-11-28T17:47:53.545Z,11.40
2017-11-28T17:50:21.627Z,14.93
2017-11-28T17:52:49.734Z,12.80
2017-11-28T17:55:18.572Z,14.30
2017-11-28T17:57:46.662Z,13.60
2017-11-28T18:00:14.740Z,11.53
2017-11-28T18:02:42.837Z,13.60
2017-11-28T18:05:10.918Z,13.47
2017-11-28T18:07:39.016Z,16.00
2017-11-28T18:10:07.116Z,14.43
2017-11-28T18:12:35.197Z,13.60
2017-11-28T18:15:04.056Z,15.10
2017-11-28T18:17:32.136Z,13.10
2017-11-28T18:20:00.232Z,13.57
2017-11-28T18:22:28.505Z,15.33
2017-11-28T18:24:58.118Z,14.50
2017-11-28T18:27:26.172Z,15.23
2017-11-28T18:29:54.358Z,14.40
2017-11-28T18:32:23.232Z,14.77
2017-11-28T18:34:51.321Z,18.20
2017-11-28T18:37:20.168Z,24.83
2017-11-28T18:39:48.253Z,17.13
2017-11-28T18:42:16.328Z,17.50
2017-11-28T18:44:44.407Z,15.53
2017-11-28T18:47:13.255Z,13.80
2017-11-28T18:49:41.348Z,14.90
2017-11-28T19:05:18.936Z,11.00
2017-11-28T19:07:47.016Z,10.50
2017-11-28T19:10:15.867Z,9.27
2017-11-28T19:12:43.966Z,10.10
2017-11-28T19:15:12.048Z,10.03
2017-11-28T19:17:40.889Z,8.37
2017-11-28T19:20:08.973Z,8.47
2017-11-28T19:22:37.048Z,9.07
2017-11-28T19:25:05.133Z,9.00
2017-11-28T19:27:33.969Z,9.60
2017-11-28T19:30:02.824Z,11.60
2017-11-28T19:32:31.674Z,14.03
2017-11-28T19:34:59.865Z,10.83
2017-11-28T19:37:27.940Z,9.53
2017-11-28T19:39:56.029Z,10.00
2017-11-28T19:42:24.101Z,17.03
2017-11-28T19:44:52.192Z,12.80
2017-11-28T19:47:20.287Z,21.07
2017-11-28T19:49:48.368Z,18.73
2017-11-28T19:52:16.468Z,11.63
2017-11-28T19:54:45.328Z,11.10
2017-11-28T19:57:13.409Z,11.50
2017-11-28T19:59:41.589Z,10.60
2017-11-28T20:02:11.172Z,8.33
2017-11-28T20:04:39.241Z,8.90
2017-11-28T20:07:07.321Z,7.40
2017-11-28T20:09:35.509Z,9.20
2017-11-28T20:12:03.571Z,9.03
2017-11-28T20:14:31.652Z,9.77
2017-11-28T20:16:59.720Z,7.87
2017-11-28T20:19:27.799Z,8.83
2017-11-28T20:21:55.879Z,9.10
2017-11-28T20:24:24.021Z,8.00
2017-11-28T20:26:52.097Z,9.77
2017-11-28T20:29:20.246Z,9.13
2017-11-28T20:31:48.321Z,13.43
2017-11-28T20:34:16.409Z,15.83
2017-11-28T20:36:44.489Z,11.77
2017-11-28T20:39:12.564Z,9.70
2017-11-28T20:41:41.408Z,8.33
2017-11-28T20:44:09.488Z,8.93
2017-11-28T20:46:37.568Z,9.77
2017-11-28T20:49:11.201Z,9.33
2017-11-28T20:51:40.044Z,9.30
2017-11-28T20:54:08.136Z,11.17
2017-11-28T20:56:36.223Z,14.43
2017-11-28T20:59:04.293Z,13.10
2017-11-28T21:01:33.229Z,14.70
2017-11-28T21:04:01.318Z,15.43
2017-11-28T21:06:29.391Z,10.20
2017-11-28T21:08:57.477Z,9.30
2017-11-28T21:11:25.613Z,11.97
2017-11-28T21:13:53.704Z,10.02
2017-11-28T21:16:21.785Z,9.80
2017-11-28T21:18:49.924Z,9.73
2017-11-28T21:21:18.016Z,11.77
2017-11-28T21:23:46.122Z,10.03
2017-11-28T21:26:14.186Z,9.83
2017-11-28T21:28:42.269Z,9.23
2017-11-28T21:31:11.104Z,9.17
2017-11-28T21:33:39.180Z,7.37
2017-11-28T21:36:07.268Z,7.50
2017-11-28T21:38:35.340Z,6.55
2017-11-28T21:41:03.466Z,7.75
2017-11-28T21:43:31.549Z,6.53
2017-11-28T21:45:59.639Z,6.78
2017-11-28T21:48:27.732Z,7.75
2017-11-28T21:50:55.809Z,7.68
2017-11-28T21:53:24.661Z,7.53
2017-11-28T21:55:52.749Z,9.27
2017-11-28T21:58:20.846Z,8.90
2017-11-28T22:00:49.688Z,7.37
2017-11-28T22:03:17.764Z,8.03
2017-11-28T22:05:45.853Z,8.90
2017-11-28T22:08:14.004Z,10.27
2017-11-28T22:10:42.199Z,9.43
2017-11-28T22:13:10.305Z,9.50
2017-11-28T22:15:38.413Z,8.80
2017-11-28T22:18:06.620Z,9.10
2017-11-28T22:20:34.711Z,9.02
2017-11-28T22:23:02.800Z,9.68
2017-11-28T22:25:30.872Z,12.03
2017-11-28T22:27:58.973Z,10.63
2017-11-28T22:30:27.075Z,10.65
2017-11-28T22:32:55.930Z,10.07
2017-11-28T22:35:24.020Z,10.93
2017-11-28T22:37:52.112Z,10.23
2017-11-28T22:40:21.040Z,11.00
2017-11-28T22:42:49.140Z,14.80
2017-11-28T22:45:17.241Z,13.60
2017-11-28T22:47:46.092Z,23.90
2017-11-28T22:50:14.202Z,13.93
2017-11-28T22:52:43.068Z,15.65
2017-11-28T22:55:11.172Z,13.60
2017-11-28T22:57:39.269Z,15.37
2017-11-28T23:00:07.374Z,16.20
2017-11-28T23:02:35.443Z,15.17
2017-11-28T23:05:03.539Z,15.57
2017-11-28T23:07:32.411Z,14.53
2017-11-28T23:10:00.519Z,11.93
2017-11-28T23:12:28.665Z,12.30
2017-11-28T23:14:56.821Z,13.67
2017-11-28T23:17:24.916Z,13.53
2017-11-28T23:19:53.762Z,14.40
2017-11-28T23:22:21.849Z,11.70
2017-11-28T23:24:49.975Z,13.00
2017-11-28T23:27:18.053Z,13.50
2017-11-28T23:29:46.141Z,15.18
2017-11-28T23:32:14.240Z,11.73
2017-11-28T23:34:42.350Z,12.50
2017-11-28T23:37:11.405Z,12.07
2017-11-28T23:39:39.488Z,13.52
2017-11-28T23:42:08.554Z,13.47
2017-11-28T23:44:36.653Z,13.65
2017-11-28T23:47:05.504Z,15.87
2017-11-28T23:49:33.598Z,16.15
2017-11-28T23:52:01.698Z,14.80
2017-11-28T23:54:30.548Z,12.90
2017-11-28T23:56:58.640Z,13.47
2017-11-28T23:59:27.509Z,14.80
